sensor_id;sensor_type;location;lat;lon;timestamp;pressure;altitude;pressure_sealevel;temperature
48854;BMP280;34673;52.808;17.856;2024-02-23T00:02:20;97849.91;;;7.77
48854;BMP280;34673;52.808;17.856;2024-02-23T00:04:47;97844.63;;;7.80
48854;BMP280;34673;52.808;17.856;2024-02-23T00:07:15;97846.41;;;7.78
48854;BMP280;34673;52.808;17.856;2024-02-23T00:09:42;97837.69;;;7.82
48854;BMP280;34673;52.808;17.856;2024-02-23T00:12:09;97836.00;;;7.81
48854;BMP280;34673;52.808;17.856;2024-02-23T00:14:37;97824.03;;;7.80
48854;BMP280;34673;52.808;17.856;2024-02-23T00:17:05;97829.06;;;7.83
48854;BMP280;34673;52.808;17.856;2024-02-23T00:19:32;97827.41;;;7.82
48854;BMP280;34673;52.808;17.856;2024-02-23T00:21:59;97835.06;;;7.84
48854;BMP280;34673;52.808;17.856;2024-02-23T00:24:27;97841.03;;;7.84
48854;BMP280;34673;52.808;17.856;2024-02-23T00:26:54;97824.03;;;7.80
48854;BMP280;34673;52.808;17.856;2024-02-23T00:29:21;97834.34;;;7.80
48854;BMP280;34673;52.808;17.856;2024-02-23T00:31:49;97835.88;;;7.84
48854;BMP280;34673;52.808;17.856;2024-02-23T00:34:16;97830.75;;;7.84
48854;BMP280;34673;52.808;17.856;2024-02-23T00:36:44;97830.75;;;7.84
48854;BMP280;34673;52.808;17.856;2024-02-23T00:39:12;97840.94;;;7.87
48854;BMP280;34673;52.808;17.856;2024-02-23T00:41:39;97828.84;;;7.89
48854;BMP280;34673;52.808;17.856;2024-02-23T00:44:06;97830.53;;;7.90
48854;BMP280;34673;52.808;17.856;2024-02-23T00:46:34;97827.84;;;7.93
48854;BMP280;34673;52.808;17.856;2024-02-23T00:49:01;97817.59;;;7.92
48854;BMP280;34673;52.808;17.856;2024-02-23T00:51:29;97826.81;;;7.97
48854;BMP280;34673;52.808;17.856;2024-02-23T00:53:56;97815.78;;;7.94
48854;BMP280;34673;52.808;17.856;2024-02-23T00:56:24;97823.34;;;7.98
48854;BMP280;34673;52.808;17.856;2024-02-23T00:59:01;97821.53;;;8.00
48854;BMP280;34673;52.808;17.856;2024-02-23T01:01:29;97800.94;;;8.00
48854;BMP280;34673;52.808;17.856;2024-02-23T01:03:56;97802.63;;;8.02
48854;BMP280;34673;52.808;17.856;2024-02-23T01:06:23;97804.31;;;8.03
48854;BMP280;34673;52.808;17.856;2024-02-23T01:08:52;97799.94;;;8.05
48854;BMP280;34673;52.808;17.856;2024-02-23T01:11:19;97793.06;;;8.05
48854;BMP280;34673;52.808;17.856;2024-02-23T01:13:46;97791.31;;;8.06
48854;BMP280;34673;52.808;17.856;2024-02-23T01:16:13;97793.88;;;8.06
48854;BMP280;34673;52.808;17.856;2024-02-23T01:18:41;97805.88;;;8.07
48854;BMP280;34673;52.808;17.856;2024-02-23T01:21:08;97805.88;;;8.07
48854;BMP280;34673;52.808;17.856;2024-02-23T01:23:35;97805.88;;;8.07
48854;BMP280;34673;52.808;17.856;2024-02-23T01:26:03;97816.19;;;8.07
48854;BMP280;34673;52.808;17.856;2024-02-23T01:28:30;97806.00;;;8.04
48854;BMP280;34673;52.808;17.856;2024-02-23T01:30:57;97797.25;;;8.08
48854;BMP280;34673;52.808;17.856;2024-02-23T01:33:25;97807.53;;;8.08
48854;BMP280;34673;52.808;17.856;2024-02-23T01:35:52;97804.97;;;8.08
48854;BMP280;34673;52.808;17.856;2024-02-23T01:38:19;97812.66;;;8.09
48854;BMP280;34673;52.808;17.856;2024-02-23T01:40:48;97805.13;;;8.03
48854;BMP280;34673;52.808;17.856;2024-02-23T01:43:16;97812.69;;;8.08
48854;BMP280;34673;52.808;17.856;2024-02-23T01:45:43;97823.00;;;8.08
48854;BMP280;34673;52.808;17.856;2024-02-23T01:48:10;97821.19;;;8.10
48854;BMP280;34673;52.808;17.856;2024-02-23T01:50:38;97832.38;;;8.09
48854;BMP280;34673;52.808;17.856;2024-02-23T01:53:05;97828.00;;;8.11
48854;BMP280;34673;52.808;17.856;2024-02-23T01:55:33;97821.06;;;8.13
48854;BMP280;34673;52.808;17.856;2024-02-23T01:58:04;97831.38;;;8.13
48854;BMP280;34673;52.808;17.856;2024-02-23T02:00:35;97827.00;;;8.15
48854;BMP280;34673;52.808;17.856;2024-02-23T02:03:04;97826.09;;;8.16
48854;BMP280;34673;52.808;17.856;2024-02-23T02:05:36;97831.25;;;8.16
48854;BMP280;34673;52.808;17.856;2024-02-23T02:08:05;97827.69;;;8.20
48854;BMP280;34673;52.808;17.856;2024-02-23T02:10:32;97830.19;;;8.21
48854;BMP280;34673;52.808;17.856;2024-02-23T02:13:04;97808.88;;;8.18
48854;BMP280;34673;52.808;17.856;2024-02-23T02:15:31;97811.31;;;8.21
48854;BMP280;34673;52.808;17.856;2024-02-23T02:17:58;97831.13;;;8.19
48854;BMP280;34673;52.808;17.856;2024-02-23T02:20:27;97822.75;;;8.14
48854;BMP280;34673;52.808;17.856;2024-02-23T02:22:55;97829.59;;;8.15
48854;BMP280;34673;52.808;17.856;2024-02-23T02:25:22;97815.13;;;8.11
48854;BMP280;34673;52.808;17.856;2024-02-23T02:27:50;97827.13;;;8.12
48854;BMP280;34673;52.808;17.856;2024-02-23T02:30:17;97828.94;;;8.10
48854;BMP280;34673;52.808;17.856;2024-02-23T02:32:44;97818.66;;;8.08
48854;BMP280;34673;52.808;17.856;2024-02-23T02:35:11;97808.56;;;8.04
48854;BMP280;34673;52.808;17.856;2024-02-23T02:37:39;97816.19;;;8.07
48854;BMP280;34673;52.808;17.856;2024-02-23T02:40:07;97812.69;;;8.08
48854;BMP280;34673;52.808;17.856;2024-02-23T02:42:34;97812.69;;;8.08
48854;BMP280;34673;52.808;17.856;2024-02-23T02:45:02;97811.72;;;8.10
48854;BMP280;34673;52.808;17.856;2024-02-23T02:47:30;97822.03;;;8.10
48854;BMP280;34673;52.808;17.856;2024-02-23T02:49:57;97809.13;;;8.12
48854;BMP280;34673;52.808;17.856;2024-02-23T02:52:25;97821.13;;;8.11
48854;BMP280;34673;52.808;17.856;2024-02-23T02:54:52;97819.34;;;8.13
48854;BMP280;34673;52.808;17.856;2024-02-23T02:57:19;97820.28;;;8.11
48854;BMP280;34673;52.808;17.856;2024-02-23T02:59:47;97822.75;;;8.14
48854;BMP280;34673;52.808;17.856;2024-02-23T03:02:17;97829.47;;;8.18
48854;BMP280;34673;52.808;17.856;2024-02-23T03:04:50;97822.53;;;8.20
48854;BMP280;34673;52.808;17.856;2024-02-23T03:07:18;97826.78;;;8.21
48854;BMP280;34673;52.808;17.856;2024-02-23T03:09:45;97830.19;;;8.21
48854;BMP280;34673;52.808;17.856;2024-02-23T03:12:13;97823.41;;;8.19
48854;BMP280;34673;52.808;17.856;2024-02-23T03:14:40;97825.84;;;8.22
48854;BMP280;34673;52.808;17.856;2024-02-23T03:17:08;97827.44;;;8.26
48854;BMP280;34673;52.808;17.856;2024-02-23T03:19:37;97825.63;;;8.28
48854;BMP280;34673;52.808;17.856;2024-02-23T03:22:05;97819.53;;;8.31
48854;BMP280;34673;52.808;17.856;2024-02-23T03:24:32;97820.50;;;8.28
48854;BMP280;34673;52.808;17.856;2024-02-23T03:26:59;97824.47;;;8.35
48854;BMP280;34673;52.808;17.856;2024-02-23T03:29:27;97830.41;;;8.37
48854;BMP280;34673;52.808;17.856;2024-02-23T03:31:58;97847.53;;;8.38
48854;BMP280;34673;52.808;17.856;2024-02-23T03:34:25;97853.59;;;8.39
48854;BMP280;34673;52.808;17.856;2024-02-23T03:36:52;97856.91;;;8.41
48854;BMP280;34673;52.808;17.856;2024-02-23T03:39:20;97851.03;;;8.37
48854;BMP280;34673;52.808;17.856;2024-02-23T03:41:47;97861.91;;;8.46
48854;BMP280;34673;52.808;17.856;2024-02-23T03:44:14;97872.16;;;8.47
48854;BMP280;34673;52.808;17.856;2024-02-23T03:46:41;97856.78;;;8.44
48854;BMP280;34673;52.808;17.856;2024-02-23T03:49:08;97871.28;;;8.47
48854;BMP280;34673;52.808;17.856;2024-02-23T03:51:35;97878.00;;;8.51
48854;BMP280;34673;52.808;17.856;2024-02-23T03:54:06;97878.00;;;8.51
48854;BMP280;34673;52.808;17.856;2024-02-23T03:56:40;97891.69;;;8.53
48854;BMP280;34673;52.808;17.856;2024-02-23T03:59:09;97895.00;;;8.55
48854;BMP280;34673;52.808;17.856;2024-02-23T04:01:38;97900.16;;;8.55
48854;BMP280;34673;52.808;17.856;2024-02-23T04:04:06;97898.38;;;8.57
48854;BMP280;34673;52.808;17.856;2024-02-23T04:06:34;97891.56;;;8.56
48854;BMP280;34673;52.808;17.856;2024-02-23T04:09:02;97902.56;;;8.59
48854;BMP280;34673;52.808;17.856;2024-02-23T04:11:32;97906.75;;;8.62
48854;BMP280;34673;52.808;17.856;2024-02-23T04:14:00;97888.03;;;8.58
48854;BMP280;34673;52.808;17.856;2024-02-23T04:16:28;97903.19;;;8.66
48854;BMP280;34673;52.808;17.856;2024-02-23T04:18:55;97906.50;;;8.68
48854;BMP280;34673;52.808;17.856;2024-02-23T04:21:23;97909.88;;;8.70
48854;BMP280;34673;52.808;17.856;2024-02-23T04:23:51;97908.22;;;8.69
48854;BMP280;34673;52.808;17.856;2024-02-23T04:26:18;97911.66;;;8.68
48854;BMP280;34673;52.808;17.856;2024-02-23T04:28:45;97925.09;;;8.76
48854;BMP280;34673;52.808;17.856;2024-02-23T04:31:13;97926.78;;;8.77
48854;BMP280;34673;52.808;17.856;2024-02-23T04:33:40;97923.31;;;8.78
48854;BMP280;34673;52.808;17.856;2024-02-23T04:36:08;97933.47;;;8.81
48854;BMP280;34673;52.808;17.856;2024-02-23T04:38:35;97930.13;;;8.79
48854;BMP280;34673;52.808;17.856;2024-02-23T04:41:03;97941.09;;;8.84
48854;BMP280;34673;52.808;17.856;2024-02-23T04:43:32;97941.09;;;8.84
48854;BMP280;34673;52.808;17.856;2024-02-23T04:45:59;97938.50;;;8.84
48854;BMP280;34673;52.808;17.856;2024-02-23T04:48:27;97952.06;;;8.90
48854;BMP280;34673;52.808;17.856;2024-02-23T04:50:54;97954.72;;;8.88
48854;BMP280;34673;52.808;17.856;2024-02-23T04:53:21;97965.75;;;8.92
48854;BMP280;34673;52.808;17.856;2024-02-23T04:55:48;97955.44;;;8.92
48854;BMP280;34673;52.808;17.856;2024-02-23T04:58:16;97963.81;;;8.97
48854;BMP280;34673;52.808;17.856;2024-02-23T05:00:43;97962.78;;;9.01
48854;BMP280;34673;52.808;17.856;2024-02-23T05:03:10;97966.16;;;9.03
48854;BMP280;34673;52.808;17.856;2024-02-23T05:05:38;97974.59;;;9.06
48854;BMP280;34673;52.808;17.856;2024-02-23T05:08:07;97977.13;;;9.08
48854;BMP280;34673;52.808;17.856;2024-02-23T05:10:34;97982.16;;;9.11
48854;BMP280;34673;52.808;17.856;2024-02-23T05:13:01;97972.75;;;9.10
48854;BMP280;34673;52.808;17.856;2024-02-23T05:15:28;97977.00;;;9.11
48854;BMP280;34673;52.808;17.856;2024-02-23T05:17:56;97983.84;;;9.12
48854;BMP280;34673;52.808;17.856;2024-02-23T05:20:23;97997.38;;;9.17
48854;BMP280;34673;52.808;17.856;2024-02-23T05:22:51;97992.47;;;9.11
48854;BMP280;34673;52.808;17.856;2024-02-23T05:25:18;98004.22;;;9.18
48854;BMP280;34673;52.808;17.856;2024-02-23T05:27:45;98006.69;;;9.21
48854;BMP280;34673;52.808;17.856;2024-02-23T05:30:12;98002.53;;;9.17
48854;BMP280;34673;52.808;17.856;2024-02-23T05:32:40;98006.56;;;9.24
48854;BMP280;34673;52.808;17.856;2024-02-23T05:35:07;98015.13;;;9.25
48854;BMP280;34673;52.808;17.856;2024-02-23T05:37:36;98026.28;;;9.25
48854;BMP280;34673;52.808;17.856;2024-02-23T05:40:04;98024.59;;;9.24
48854;BMP280;34673;52.808;17.856;2024-02-23T05:42:38;98026.41;;;9.22
48854;BMP280;34673;52.808;17.856;2024-02-23T05:45:08;98036.59;;;9.25
48854;BMP280;34673;52.808;17.856;2024-02-23T05:47:37;98046.91;;;9.25
48854;BMP280;34673;52.808;17.856;2024-02-23T05:50:05;98047.94;;;9.21
48854;BMP280;34673;52.808;17.856;2024-02-23T05:52:33;98048.75;;;9.23
48854;BMP280;34673;52.808;17.856;2024-02-23T05:55:01;98067.47;;;9.28
48854;BMP280;34673;52.808;17.856;2024-02-23T05:57:29;98064.94;;;9.27
48854;BMP280;34673;52.808;17.856;2024-02-23T05:59:56;98074.16;;;9.32
48854;BMP280;34673;52.808;17.856;2024-02-23T06:02:24;98087.84;;;9.35
48854;BMP280;34673;52.808;17.856;2024-02-23T06:04:51;98092.16;;;9.34
48854;BMP280;34673;52.808;17.856;2024-02-23T06:07:18;98098.16;;;9.35
48854;BMP280;34673;52.808;17.856;2024-02-23T06:09:48;98117.91;;;9.36
48854;BMP280;34673;52.808;17.856;2024-02-23T06:12:16;98120.34;;;9.39
48854;BMP280;34673;52.808;17.856;2024-02-23T06:14:43;98118.56;;;9.41
48854;BMP280;34673;52.808;17.856;2024-02-23T06:17:10;98125.50;;;9.39
48854;BMP280;34673;52.808;17.856;2024-02-23T06:19:37;98135.84;;;9.39
48854;BMP280;34673;52.808;17.856;2024-02-23T06:22:05;98134.16;;;9.38
48854;BMP280;34673;52.808;17.856;2024-02-23T06:24:32;98139.31;;;9.38
48854;BMP280;34673;52.808;17.856;2024-02-23T06:26:59;98155.72;;;9.37
48854;BMP280;34673;52.808;17.856;2024-02-23T06:29:26;98156.47;;;9.39
48854;BMP280;34673;52.808;17.856;2024-02-23T06:31:54;98159.97;;;9.38
48854;BMP280;34673;52.808;17.856;2024-02-23T06:34:21;98167.59;;;9.41
48854;BMP280;34673;52.808;17.856;2024-02-23T06:36:49;98165.78;;;9.43
48854;BMP280;34673;52.808;17.856;2024-02-23T06:39:16;98170.88;;;9.44
48854;BMP280;34673;52.808;17.856;2024-02-23T06:41:45;98166.66;;;9.42
48854;BMP280;34673;52.808;17.856;2024-02-23T06:44:12;98171.84;;;9.42
48854;BMP280;34673;52.808;17.856;2024-02-23T06:46:40;98183.72;;;9.46
48854;BMP280;34673;52.808;17.856;2024-02-23T06:49:07;98185.41;;;9.47
48854;BMP280;34673;52.808;17.856;2024-02-23T06:51:35;98198.31;;;9.47
48854;BMP280;34673;52.808;17.856;2024-02-23T06:54:03;98200.88;;;9.47
48854;BMP280;34673;52.808;17.856;2024-02-23T06:56:30;98200.88;;;9.47
48854;BMP280;34673;52.808;17.856;2024-02-23T06:58:58;98212.91;;;9.48
48854;BMP280;34673;52.808;17.856;2024-02-23T07:01:25;98217.16;;;9.49
48854;BMP280;34673;52.808;17.856;2024-02-23T07:03:52;98221.44;;;9.50
48854;BMP280;34673;52.808;17.856;2024-02-23T07:06:20;98219.75;;;9.49
48854;BMP280;34673;52.808;17.856;2024-02-23T07:08:47;98221.44;;;9.50
48854;BMP280;34673;52.808;17.856;2024-02-23T07:11:14;98235.19;;;9.50
48854;BMP280;34673;52.808;17.856;2024-02-23T07:13:45;98239.50;;;9.50
48854;BMP280;34673;52.808;17.856;2024-02-23T07:16:12;98243.75;;;9.51
48854;BMP280;34673;52.808;17.856;2024-02-23T07:18:40;98243.75;;;9.51
48854;BMP280;34673;52.808;17.856;2024-02-23T07:21:08;98261.81;;;9.51
48854;BMP280;34673;52.808;17.856;2024-02-23T07:23:35;98262.75;;;9.50
48854;BMP280;34673;52.808;17.856;2024-02-23T07:26:03;98271.25;;;9.52
48854;BMP280;34673;52.808;17.856;2024-02-23T07:28:30;98267.16;;;9.46
48854;BMP280;34673;52.808;17.856;2024-02-23T07:30:59;98278.22;;;9.50
48854;BMP280;34673;52.808;17.856;2024-02-23T07:33:26;98279.09;;;9.49
48854;BMP280;34673;52.808;17.856;2024-02-23T07:35:54;98296.38;;;9.47
48854;BMP280;34673;52.808;17.856;2024-02-23T07:38:21;98286.84;;;9.49
48854;BMP280;34673;52.808;17.856;2024-02-23T07:40:48;98291.16;;;9.48
48854;BMP280;34673;52.808;17.856;2024-02-23T07:43:16;98302.31;;;9.49
48854;BMP280;34673;52.808;17.856;2024-02-23T07:45:43;98307.72;;;9.43
48854;BMP280;34673;52.808;17.856;2024-02-23T07:48:10;98314.44;;;9.47
48854;BMP280;34673;52.808;17.856;2024-02-23T07:50:38;98300.09;;;9.40
48854;BMP280;34673;52.808;17.856;2024-02-23T07:53:05;98311.09;;;9.45
48854;BMP280;34673;52.808;17.856;2024-02-23T07:55:33;98324.88;;;9.44
48854;BMP280;34673;52.808;17.856;2024-02-23T07:58:00;98325.00;;;9.41
48854;BMP280;34673;52.808;17.856;2024-02-23T08:00:28;98327.66;;;9.39
48854;BMP280;34673;52.808;17.856;2024-02-23T08:02:55;98344.06;;;9.37
48854;BMP280;34673;52.808;17.856;2024-02-23T08:05:27;98355.28;;;9.36
48854;BMP280;34673;52.808;17.856;2024-02-23T08:07:54;98345.22;;;9.28
48854;BMP280;34673;52.808;17.856;2024-02-23T08:10:23;98362.28;;;9.32
48854;BMP280;34673;52.808;17.856;2024-02-23T08:12:52;98363.19;;;9.31
48854;BMP280;34673;52.808;17.856;2024-02-23T08:15:19;98371.88;;;9.28
48854;BMP280;34673;52.808;17.856;2024-02-23T08:17:47;98369.34;;;9.27
48854;BMP280;34673;52.808;17.856;2024-02-23T08:20:14;98387.44;;;9.25
48854;BMP280;34673;52.808;17.856;2024-02-23T08:22:42;98385.75;;;9.24
48854;BMP280;34673;52.808;17.856;2024-02-23T08:25:09;98393.56;;;9.23
48854;BMP280;34673;52.808;17.856;2024-02-23T08:27:41;98391.88;;;9.22
48854;BMP280;34673;52.808;17.856;2024-02-23T08:30:08;98401.34;;;9.21
48854;BMP280;34673;52.808;17.856;2024-02-23T08:32:37;98401.34;;;9.21
48854;BMP280;34673;52.808;17.856;2024-02-23T08:35:05;98403.91;;;9.23
48854;BMP280;34673;52.808;17.856;2024-02-23T08:37:33;98408.09;;;9.25
48854;BMP280;34673;52.808;17.856;2024-02-23T08:40:00;98413.25;;;9.25
48854;BMP280;34673;52.808;17.856;2024-02-23T08:42:28;98409.78;;;9.26
48854;BMP280;34673;52.808;17.856;2024-02-23T08:44:55;98425.03;;;9.32
48854;BMP280;34673;52.808;17.856;2024-02-23T08:47:22;98419.88;;;9.32
48854;BMP280;34673;52.808;17.856;2024-02-23T08:49:50;98430.00;;;9.39
48854;BMP280;34673;52.808;17.856;2024-02-23T08:52:17;98432.47;;;9.42
48854;BMP280;34673;52.808;17.856;2024-02-23T08:54:44;98442.72;;;9.45
48854;BMP280;34673;52.808;17.856;2024-02-23T08:57:11;98448.59;;;9.48
48854;BMP280;34673;52.808;17.856;2024-02-23T08:59:39;98446.75;;;9.52
48854;BMP280;34673;52.808;17.856;2024-02-23T09:02:06;98439.22;;;9.46
48854;BMP280;34673;52.808;17.856;2024-02-23T09:04:33;98444.34;;;9.47
48854;BMP280;34673;52.808;17.856;2024-02-23T09:07:01;98450.22;;;9.51
48854;BMP280;34673;52.808;17.856;2024-02-23T09:09:28;98462.13;;;9.55
48854;BMP280;34673;52.808;17.856;2024-02-23T09:11:55;98465.59;;;9.54
48854;BMP280;34673;52.808;17.856;2024-02-23T09:14:23;98465.81;;;9.48
48854;BMP280;34673;52.808;17.856;2024-02-23T09:16:52;98469.22;;;9.50
48854;BMP280;34673;52.808;17.856;2024-02-23T09:19:20;98478.78;;;9.46
48854;BMP280;34673;52.808;17.856;2024-02-23T09:21:47;98489.88;;;9.48
48854;BMP280;34673;52.808;17.856;2024-02-23T09:24:14;98483.91;;;9.48
48854;BMP280;34673;52.808;17.856;2024-02-23T09:26:42;98483.91;;;9.48
48854;BMP280;34673;52.808;17.856;2024-02-23T09:29:13;98489.09;;;9.46
48854;BMP280;34673;52.808;17.856;2024-02-23T09:31:40;98501.16;;;9.46
48854;BMP280;34673;52.808;17.856;2024-02-23T09:34:08;98519.22;;;9.46
48854;BMP280;34673;52.808;17.856;2024-02-23T09:36:35;98522.66;;;9.46
48854;BMP280;34673;52.808;17.856;2024-02-23T09:39:03;98528.75;;;9.44
48854;BMP280;34673;52.808;17.856;2024-02-23T09:41:31;98528.72;;;9.45
48854;BMP280;34673;52.808;17.856;2024-02-23T09:44:00;98527.88;;;9.45
48854;BMP280;34673;52.808;17.856;2024-02-23T09:46:29;98539.75;;;9.49
48854;BMP280;34673;52.808;17.856;2024-02-23T09:48:56;98562.13;;;9.50
48854;BMP280;34673;52.808;17.856;2024-02-23T09:51:25;98559.47;;;9.51
48854;BMP280;34673;52.808;17.856;2024-02-23T09:53:52;98558.53;;;9.54
48854;BMP280;34673;52.808;17.856;2024-02-23T09:56:21;98564.53;;;9.54
48854;BMP280;34673;52.808;17.856;2024-02-23T09:58:51;98578.97;;;9.60
48854;BMP280;34673;52.808;17.856;2024-02-23T10:01:27;98587.41;;;9.65
48854;BMP280;34673;52.808;17.856;2024-02-23T10:03:58;98582.97;;;9.69
48854;BMP280;34673;52.808;17.856;2024-02-23T10:06:26;98595.66;;;9.76
48854;BMP280;34673;52.808;17.856;2024-02-23T10:08:53;98590.38;;;9.80
48854;BMP280;34673;52.808;17.856;2024-02-23T10:11:21;98596.94;;;9.90
48854;BMP280;34673;52.808;17.856;2024-02-23T10:13:50;98600.31;;;9.92
48854;BMP280;34673;52.808;17.856;2024-02-23T10:16:22;98602.69;;;9.98
48854;BMP280;34673;52.808;17.856;2024-02-23T10:18:49;98608.66;;;10.00
48854;BMP280;34673;52.808;17.856;2024-02-23T10:21:17;98610.44;;;9.98
48854;BMP280;34673;52.808;17.856;2024-02-23T10:23:45;98618.16;;;9.99
48854;BMP280;34673;52.808;17.856;2024-02-23T10:26:13;98624.16;;;10.00
48854;BMP280;34673;52.808;17.856;2024-02-23T10:28:46;98624.16;;;10.00
48854;BMP280;34673;52.808;17.856;2024-02-23T10:31:18;98626.84;;;9.97
48854;BMP280;34673;52.808;17.856;2024-02-23T10:33:46;98622.53;;;9.96
48854;BMP280;34673;52.808;17.856;2024-02-23T10:36:15;98628.50;;;9.98
48854;BMP280;34673;52.808;17.856;2024-02-23T10:38:45;98635.38;;;9.99
48854;BMP280;34673;52.808;17.856;2024-02-23T10:41:16;98643.16;;;9.97
48854;BMP280;34673;52.808;17.856;2024-02-23T10:43:48;98652.66;;;9.97
48854;BMP280;34673;52.808;17.856;2024-02-23T10:46:16;98648.44;;;9.94
48854;BMP280;34673;52.808;17.856;2024-02-23T10:48:45;98646.69;;;9.95
48854;BMP280;34673;52.808;17.856;2024-02-23T10:51:14;98655.09;;;10.02
48854;BMP280;34673;52.808;17.856;2024-02-23T10:53:48;98652.44;;;10.03
48854;BMP280;34673;52.808;17.856;2024-02-23T10:56:16;98650.72;;;10.04
48854;BMP280;34673;52.808;17.856;2024-02-23T10:58:43;98651.75;;;9.98
48854;BMP280;34673;52.808;17.856;2024-02-23T11:01:11;98660.09;;;10.06
48854;BMP280;34673;52.808;17.856;2024-02-23T11:03:42;98662.00;;;10.01
48854;BMP280;34673;52.808;17.856;2024-02-23T11:06:13;98664.53;;;10.03
48854;BMP280;34673;52.808;17.856;2024-02-23T11:08:41;98657.84;;;9.97
48854;BMP280;34673;52.808;17.856;2024-02-23T11:11:10;98676.75;;;9.97
48854;BMP280;34673;52.808;17.856;2024-02-23T11:13:39;98670.75;;;9.97
48854;BMP280;34673;52.808;17.856;2024-02-23T11:16:08;98658.63;;;9.99
48854;BMP280;34673;52.808;17.856;2024-02-23T11:18:41;98663.81;;;9.99
48854;BMP280;34673;52.808;17.856;2024-02-23T11:21:10;98662.00;;;10.01
48854;BMP280;34673;52.808;17.856;2024-02-23T11:23:48;98669.59;;;10.06
48854;BMP280;34673;52.808;17.856;2024-02-23T11:26:18;98670.44;;;10.06
48854;BMP280;34673;52.808;17.856;2024-02-23T11:28:52;98678.78;;;10.14
48854;BMP280;34673;52.808;17.856;2024-02-23T11:31:22;98676.19;;;10.14
48854;BMP280;34673;52.808;17.856;2024-02-23T11:33:52;98672.78;;;10.14
48854;BMP280;34673;52.808;17.856;2024-02-23T11:36:27;98671.81;;;10.16
48854;BMP280;34673;52.808;17.856;2024-02-23T11:38:57;98673.59;;;10.14
48854;BMP280;34673;52.808;17.856;2024-02-23T11:41:25;98688.31;;;10.12
48854;BMP280;34673;52.808;17.856;2024-02-23T11:43:54;98682.38;;;10.10
48854;BMP280;34673;52.808;17.856;2024-02-23T11:46:22;98677.00;;;10.16
48854;BMP280;34673;52.808;17.856;2024-02-23T11:48:50;98684.41;;;10.27
48854;BMP280;34673;52.808;17.856;2024-02-23T11:51:23;98686.25;;;10.24
48854;BMP280;34673;52.808;17.856;2024-02-23T11:53:55;98704.44;;;10.20
48854;BMP280;34673;52.808;17.856;2024-02-23T11:56:26;98698.72;;;10.11
48854;BMP280;34673;52.808;17.856;2024-02-23T11:58:54;98718.44;;;10.13
48854;BMP280;34673;52.808;17.856;2024-02-23T12:01:22;98704.72;;;10.11
48854;BMP280;34673;52.808;17.856;2024-02-23T12:03:49;98699.44;;;10.14
48854;BMP280;34673;52.808;17.856;2024-02-23T12:06:17;98703.16;;;10.07
48854;BMP280;34673;52.808;17.856;2024-02-23T12:08:45;98710.72;;;10.12
48854;BMP280;34673;52.808;17.856;2024-02-23T12:11:14;98699.34;;;10.17
48854;BMP280;34673;52.808;17.856;2024-02-23T12:13:41;98695.59;;;10.28
48854;BMP280;34673;52.808;17.856;2024-02-23T12:16:09;98688.44;;;10.36
48854;BMP280;34673;52.808;17.856;2024-02-23T12:18:36;98702.03;;;10.41
48854;BMP280;34673;52.808;17.856;2024-02-23T12:21:05;98703.81;;;10.39
48854;BMP280;34673;52.808;17.856;2024-02-23T12:23:44;98706.59;;;10.34
48854;BMP280;34673;52.808;17.856;2024-02-23T12:26:13;98713.47;;;10.34
48854;BMP280;34673;52.808;17.856;2024-02-23T12:28:41;98719.34;;;10.39
48854;BMP280;34673;52.808;17.856;2024-02-23T12:31:08;98721.75;;;10.45
48854;BMP280;34673;52.808;17.856;2024-02-23T12:33:37;98716.56;;;10.45
48854;BMP280;34673;52.808;17.856;2024-02-23T12:36:08;98723.53;;;10.43
48854;BMP280;34673;52.808;17.856;2024-02-23T12:38:35;98734.94;;;10.36
48854;BMP280;34673;52.808;17.856;2024-02-23T12:41:04;98742.00;;;10.31
48854;BMP280;34673;52.808;17.856;2024-02-23T12:43:32;98745.66;;;10.24
48854;BMP280;34673;52.808;17.856;2024-02-23T12:45:59;98750.25;;;10.15
48854;BMP280;34673;52.808;17.856;2024-02-23T12:48:28;98759.09;;;10.07
48854;BMP280;34673;52.808;17.856;2024-02-23T12:50:55;98760.34;;;9.95
48854;BMP280;34673;52.808;17.856;2024-02-23T12:53:36;98774.28;;;9.91
48854;BMP280;34673;52.808;17.856;2024-02-23T12:56:06;98772.72;;;9.85
48854;BMP280;34673;52.808;17.856;2024-02-23T12:58:38;98783.09;;;9.84
48854;BMP280;34673;52.808;17.856;2024-02-23T13:01:06;98788.34;;;9.81
48854;BMP280;34673;52.808;17.856;2024-02-23T13:03:35;98800.53;;;9.75
48854;BMP280;34673;52.808;17.856;2024-02-23T13:06:04;98805.72;;;9.75
48854;BMP280;34673;52.808;17.856;2024-02-23T13:08:32;98805.00;;;9.70
48854;BMP280;34673;52.808;17.856;2024-02-23T13:11:00;98813.59;;;9.71
48854;BMP280;34673;52.808;17.856;2024-02-23T13:13:27;98812.94;;;9.64
48854;BMP280;34673;52.808;17.856;2024-02-23T13:15:55;98829.28;;;9.63
48854;BMP280;34673;52.808;17.856;2024-02-23T13:18:23;98826.03;;;9.58
48854;BMP280;34673;52.808;17.856;2024-02-23T13:20:51;98819.22;;;9.56
48854;BMP280;34673;52.808;17.856;2024-02-23T13:23:19;98819.25;;;9.54
48854;BMP280;34673;52.808;17.856;2024-02-23T13:25:46;98821.81;;;9.54
48854;BMP280;34673;52.808;17.856;2024-02-23T13:28:13;98826.97;;;9.54
48854;BMP280;34673;52.808;17.856;2024-02-23T13:30:41;98825.31;;;9.53
48854;BMP280;34673;52.808;17.856;2024-02-23T13:33:08;98833.03;;;9.53
48854;BMP280;34673;52.808;17.856;2024-02-23T13:35:38;98833.81;;;9.55
48854;BMP280;34673;52.808;17.856;2024-02-23T13:38:07;98832.06;;;9.57
48854;BMP280;34673;52.808;17.856;2024-02-23T13:40:34;98833.75;;;9.58
48854;BMP280;34673;52.808;17.856;2024-02-23T13:43:01;98842.28;;;9.60
48854;BMP280;34673;52.808;17.856;2024-02-23T13:45:29;98837.03;;;9.63
48854;BMP280;34673;52.808;17.856;2024-02-23T13:47:58;98823.25;;;9.64
48854;BMP280;34673;52.808;17.856;2024-02-23T13:50:26;98823.06;;;9.70
48854;BMP280;34673;52.808;17.856;2024-02-23T13:52:54;98821.19;;;9.75
48854;BMP280;34673;52.808;17.856;2024-02-23T13:55:22;98813.38;;;9.77
48854;BMP280;34673;52.808;17.856;2024-02-23T13:57:49;98820.16;;;9.81
48854;BMP280;34673;52.808;17.856;2024-02-23T14:00:18;98822.72;;;9.83
48854;BMP280;34673;52.808;17.856;2024-02-23T14:02:47;98817.56;;;9.83
48854;BMP280;34673;52.808;17.856;2024-02-23T14:05:15;98826.09;;;9.85
48854;BMP280;34673;52.808;17.856;2024-02-23T14:07:45;98822.63;;;9.86
48854;BMP280;34673;52.808;17.856;2024-02-23T14:10:13;98815.75;;;9.85
48854;BMP280;34673;52.808;17.856;2024-02-23T14:12:41;98796.09;;;9.81